Weather observations for the past three days for
Conway Horry County Airport
Metric (Imperial)
Date Time (edt) Wind (kph) Vis. (km) Weather Sky Cond. Temperature (ºC) Relative Humidity Wind Chill (°C) Heat Index (°C) Pressure Precipitation (cm)
Air Dwpt 6 hour altimeter (cm) sea level (mb) 1 hr 3 hr 6 hr
Max. Min.
04 21:35 Calm 16.09 Fair CLR 16 10 68% 76.33 0.0
04 21:15 Calm 16.09 Fair CLR 16 10 68% 76.3 0.0
04 20:55 Calm 16.09 Fair CLR 17 10 64% 76.3 0.0
04 20:35 S 6 16.09 Fair CLR 18 10 60% 76.3 0.0
04 20:15 S 7 16.09 Fair CLR 18 10 60% 76.28 0.0
04 19:55 S 11 16.09 Fair CLR 19 10 56% 76.28 0.0
04 19:35 S 13 16.09 Fair CLR 20 10 53% 76.25 0.0
04 19:15 S 17 16.09 Fair CLR 21 9 46% 76.23 0.0
04 18:55 S 17 G 28 16.09 Fair CLR 21 8 43% 76.25 0.0
04 18:35 S 20 G 30 16.09 Fair CLR 21 7 40% 76.23 0.0
04 18:15 S 17 G 33 16.09 Fair CLR 22 7 38% 76.23 0.0
04 17:55 S 17 G 28 16.09 Fair CLR 22 9 44% 76.23 0.0
04 17:35 SE 17 G 26 16.09 Fair CLR 22 9 44% 76.23 0.0
04 17:15 SE 19 G 28 16.09 Fair CLR 23 9 41% 76.23 0.0
04 16:55 S 17 G 33 16.09 Fair CLR 23 9 41% 76.23 0.0
04 16:35 S 19 G 28 16.09 Fair CLR 23 10 44% 76.23 0.0
04 16:15 S 17 G 31 16.09 Fair CLR 23 10 44% 76.25 0.0
04 15:55 S 20 G 28 16.09 Fair CLR 23 11 47% 76.25 0.0
04 15:35 SE 17 G 28 16.09 Fair CLR 24 11 44% 25 76.25 0.0
04 15:15 S 15 G 26 16.09 Fair CLR 25 11 42% 26 76.28 0.0
04 14:55 SE 9 16.09 Fair CLR 24 11 44% 25 76.3 0.0
04 14:35 S 13 16.09 Fair CLR 24 6 31% 25 76.3 0.0
04 14:15 S 15 16.09 Fair CLR 24 7 34% 25 76.33 0.0
04 13:55 SE 11 16.09 Fair CLR 23 7 36% 76.33 0.0
04 13:35 S 15 16.09 Fair CLR 23 7 36% 76.33 0.0
04 13:15 W 6 16.09 Fair CLR 23 7 36% 76.35 0.0
04 12:55 Calm 16.09 Fair CLR 22 7 38% 76.35 0.0
04 12:35 NW 6 16.09 Fair CLR 22 6 36% 76.38 0.0
04 12:15 S 13 16.09 Fair CLR 22 7 38% 76.38 0.0
04 11:55 SW 9 16.09 Fair CLR 22 7 38% 76.4 0.0
04 11:35 S 11 16.09 Fair CLR 22 8 41% 76.4 0.0
04 11:15 SW 11 16.09 Fair CLR 21 9 46% 76.43 0.0
04 10:55 SW 9 16.09 Fair CLR 21 10 50% 76.43 0.0
04 10:35 W 11 16.09 Fair CLR 21 10 50% 76.43 0.0
04 10:15 SW 7 16.09 Fair CLR 20 10 53% 76.43 0.0
04 09:55 SW 9 16.09 Fair CLR 19 11 60% 76.43 0.0
04 09:35 SW 13 16.09 Fair CLR 18 11 64% 76.43 0.0
04 09:15 W 9 16.09 Fair CLR 18 11 64% 76.43 0.0
04 08:55 SW 7 16.09 Fair CLR 16 11 72% 76.43 0.0
04 08:35 Calm 16.09 Fair CLR 14 11 82% 76.43 0.0
04 07:55 Calm 16.09 Fair CLR 10 9 94% 76.43 0.0
04 07:35 Calm 16.09 Fair CLR 8 7 93% 76.43 0.0
04 07:15 Calm 16.09 Fair CLR 7 7 100% 76.43 0.0
04 06:55 Calm 16.09 Fair CLR 6 6 100% 76.43 0.0
04 06:35 Calm 16.09 Fair CLR 6 6 100% 76.4 0.0
04 06:15 Calm 8.05 Fog/Mist CLR 5 5 100% 76.4 0.0
04 05:55 Calm 16.09 Fair CLR 6 6 100% 76.38 0.0
04 05:35 Calm 16.09 Fair CLR 5 5 100% 76.38 0.0
04 05:15 Calm 16.09 Fair CLR 6 6 100% 76.38 0.0
04 04:55 Calm 16.09 Fair CLR 6 6 100% 76.38 0.0
04 04:35 Calm 16.09 Fair CLR 6 6 100% 76.4 0.0
04 04:15 Calm 16.09 Fair CLR 6 6 100% 76.4 0.0
04 03:55 Calm 16.09 Fair CLR 6 6 100% 76.43 0.0
04 03:35 Calm 16.09 Fair CLR 7 6 93% 76.43 0.0
04 03:15 Calm 16.09 Fair CLR 6 6 100% 76.43 0.0
04 02:55 Calm 16.09 Fair CLR 7 6 93% 76.43 0.0
04 02:35 Calm 16.09 Fair CLR 7 7 100% 76.43 0.0
04 02:15 Calm 16.09 Fair CLR 7 7 100% 76.43 0.0
04 01:55 Calm 16.09 Fair CLR 8 7 93% 76.45 0.0
04 01:35 Calm 16.09 Fair CLR 7 7 100% 76.43 0.0
04 01:15 Calm 16.09 Fair CLR 8 8 100% 76.45 0.0
04 00:55 Calm 16.09 Fair CLR 8 7 93% 76.45 0.0
04 00:35 Calm 16.09 Fair CLR 8 7 93% 76.45 0.0
04 00:15 Calm 16.09 Fair CLR 9 8 94% 76.45 0.0
03 23:55 Calm 16.09 Fair CLR 9 8 94% 76.45 0.0
03 23:35 Calm 16.09 Fair CLR 9 8 94% 76.45 0.0
03 23:15 Calm 16.09 Fair CLR 10 8 88% 76.45 0.0
03 22:55 Calm 16.09 Fair CLR 10 8 88% 76.45 0.0
03 22:35 Calm 16.09 Fair CLR 11 8 82% 76.45 0.0
03 22:15 Calm 16.09 Fair CLR 11 8 82% 76.43 0.0
03 21:55 Calm 16.09 Fair CLR 11 8 82% 76.43 0.0
03 21:35 Calm 16.09 Fair CLR 12 8 77% 76.43 0.0
03 21:15 S 6 16.09 Fair CLR 12 8 77% 76.4 0.0
03 20:55 Calm 16.09 Fair CLR 13 8 72% 76.38 0.0
03 20:35 S 6 16.09 Fair CLR 14 8 67% 76.38 0.0
03 20:15 S 6 16.09 Fair CLR 15 8 63% 76.35 0.0
03 19:55 S 6 16.09 Fair CLR 16 8 59% 76.33 0.0
03 19:35 S 9 16.09 Fair CLR 17 7 52% 76.33 0.0
03 19:15 Calm 16.09 Fair CLR 18 5 43% 76.3 0.0
03 18:55 Calm 16.09 Fair CLR 19 4 37% 76.3 0.0
03 18:35 W 9 16.09 Fair CLR 19 4 37% 76.3 0.0
03 18:15 W 7 16.09 Fair CLR 20 4 35% 76.3 0.0
03 17:55 NW 6 16.09 Fair CLR 20 3 33% 76.33 0.0
03 17:35 W 7 16.09 Fair CLR 20 3 33% 76.33 0.0
03 17:15 W 11 16.09 Fair CLR 20 4 35% 76.3 0.0
03 16:55 SW 11 16.09 Fair CLR 20 4 35% 76.3 0.0
03 16:35 W 7 16.09 Fair CLR 20 4 35% 76.33 0.0
03 16:15 Calm 16.09 Fair CLR 20 5 38% 76.33 0.0
03 15:55 S 6 16.09 Fair CLR 19 4 37% 76.38 0.0
03 15:35 W 11 16.09 Partly Cloudy SCT060 SCT080 20 4 35% 76.4 0.0
03 15:15 W 19 16.09 Partly Cloudy SCT060 19 4 37% 76.43 0.0
03 14:55 W 15 16.09 Partly Cloudy SCT060 19 3 35% 76.43 0.0
03 14:35 W 11 16.09 Fair CLR 19 5 40% 76.43 0.0
03 14:15 NW 15 16.09 Fair CLR 19 4 37% 76.45 0.0
03 13:55 W 7 16.09 Fair CLR 18 4 40% 76.48 0.0
03 13:35 W 11 16.09 Fair CLR 18 3 37% 76.48 0.0
03 13:15 W 9 16.09 Fair CLR 17 5 45% 76.5 0.0
03 12:55 NW 7 16.09 Fair CLR 17 4 42% 76.5 0.0
03 12:35 N 6 16.09 Fair CLR 16 3 42% 76.53 0.0
03 12:15 N 9 16.09 Fair CLR 16 3 42% 76.56 0.0
03 11:55 NW 9 16.09 Fair CLR 16 3 42% 76.56 0.0
03 11:35 N 13 16.09 Fair CLR 16 3 42% 76.58 0.0
03 11:15 N 11 16.09 Fair CLR 16 2 39% 76.58 0.0
03 10:55 NE 17 16.09 Fair CLR 16 2 39% 76.56 0.0
03 10:35 N 15 16.09 Fair CLR 15 2 42% 76.56 0.0
03 10:15 N 13 G 28 16.09 Fair CLR 15 3 45% 76.53 0.0
03 09:55 N 19 16.09 Fair CLR 13 4 55% 76.53 0.0
03 09:35 N 15 16.09 Fair CLR 13 6 63% 76.53 0.0
03 09:15 N 15 16.09 Fair CLR 12 6 67% 76.5 0.0
03 08:55 N 13 16.09 Fair CLR 9 9 100% 7 76.53 0.0
03 08:35 N 11 16.09 Fair CLR 8 8 100% 6 76.53 0.0
03 08:15 N 6 16.09 Fair CLR 8 8 100% 76.5 0.0
03 07:55 Calm 16.09 Fair CLR 8 8 100% 76.48 0.0
03 07:35 Calm 8.05 Fog/Mist CLR 7 7 100% 76.45 0.0
03 07:10 Calm 0.24 Fog VV000 5 5 100% 76.43 0.0
03 06:35 Calm 0.24 Fog VV000 5 5 100% 76.38 0.0
03 06:15 Calm 0.40 Fog VV002 5 5 100% 76.35 0.0
03 05:55 Calm 1.21 Fog/Mist VV005 5 5 100% 76.33 0.0
03 05:35 Calm 2.41 Fog/Mist VV007 5 5 100% 76.33 0.0
03 05:15 Calm 1.21 Fog/Mist VV005 5 5 100% 76.33 0.0
03 04:55 Calm 0.40 Fog VV002 5 5 100% 76.3 0.0
03 04:35 Calm 0.40 Fog VV002 6 6 100% 76.3 0.0
03 04:15 Calm 0.80 Fog VV005 6 6 100% 76.28 0.0
03 03:55 Calm 0.40 Fog VV002 6 6 100% 76.28 0.0
03 03:35 Calm 0.40 Fog VV002 7 7 100% 76.25 0.0
03 03:15 Calm 0.40 Fog VV002 7 7 100% 76.25 0.0
03 02:55 Calm 0.80 Fog VV005 7 7 100% 76.23 0.0
03 02:35 Calm 0.40 Fog VV002 7 7 100% 76.23 0.0
03 02:15 Calm 0.40 Fog VV002 7 7 100% 76.2 0.0
03 01:55 Calm 0.80 Fog VV005 7 7 100% 76.2 0.0
03 01:35 Calm 0.40 Fog VV002 7 7 100% 76.23 0.0
03 01:15 Calm 0.80 Fog VV005 7 7 100% 76.23 0.0
03 00:55 Calm 2.82 Fog/Mist VV007 8 8 100% 76.2 0.0
03 00:35 Calm 6.44 Fog/Mist CLR 9 9 100% 76.17 0.0
03 00:15 Calm 8.05 Fog/Mist CLR 10 10 100% 76.17 0.0
02 23:55 Calm 16.09 Fair CLR 10 10 100% 76.15 0.0
02 23:35 Calm 16.09 Fair CLR 10 10 100% 76.12 0.0
02 23:15 Calm 16.09 Partly Cloudy SCT110 11 11 100% 76.12 0.0
02 22:55 N 6 16.09 Fair CLR 11 11 100% 76.1 0.0
02 22:35 Calm 16.09 Fair CLR 11 11 100% 76.1 0.0
02 22:15 N 6 16.09 Partly Cloudy SCT110 11 11 100% 76.07 0.0
02 21:55 Calm 16.09 Partly Cloudy SCT110 11 11 100% 76.05 0.0
02 21:35 Calm 16.09 Fair CLR 11 11 100% 76.05 0.0
02 21:15 N 6 16.09 Fair CLR 11 11 100% 76.02 0.0
02 20:55 N 6 16.09 Light Drizzle CLR 11 11 100% 76 0.0
02 20:35 N 6 16.09 Fair CLR 11 11 100% 75.97 0.0
02 20:15 N 7 16.09 Light Rain CLR 11 11 100% 75.95 0.0
02 19:55 N 11 16.09 Fair CLR 12 11 94% 75.92 0.0
02 19:35 N 6 16.09 Partly Cloudy SCT012 12 12 100% 75.92 0.0
02 19:15 NW 7 16.09 Light Drizzle SCT009 SCT014 12 12 100% 75.92 0.0
02 18:55 Calm 16.09 Fair CLR 12 12 100% 75.9 0.0
02 18:35 N 7 16.09 Fair CLR 13 12 94% 75.9 0.0
02 18:15 N 7 11.27 Light Drizzle SCT009 SCT016 BKN032 13 12 94% 75.9 0.0
02 17:55 N 6 11.27 Partly Cloudy SCT009 SCT016 SCT025 13 12 94% 75.9 0.0
02 17:35 NW 6 16.09 Fair CLR 13 13 100% 75.87 0.0
02 17:15 N 7 16.09 Light Rain CLR 13 13 100% 75.84 0.0
02 16:55 N 9 16.09 Light Rain CLR 13 12 94% 75.84 0.0
02 16:35 N 7 16.09 Rain SCT012 SCT037 SCT045 13 13 100% 75.84 0.0
02 16:15 N 7 16.09 Light Rain SCT014 SCT031 BKN038 13 13 100% 75.84 0.0
02 15:55 N 9 16.09 Light Rain CLR 13 13 100% 75.84 0.0
02 15:35 N 9 11.27 Light Rain SCT013 13 13 100% 75.84 0.0
02 15:15 N 9 8.05 Light Rain SCT008 SCT013 SCT019 13 12 94% 75.84 0.0
02 14:55 N 13 16.09 Light Rain CLR 13 13 100% 75.84 0.0
02 14:35 N 7 16.09 Fair CLR 13 13 100% 75.84 0.0
02 14:15 N 11 11.27 Light Rain CLR 13 13 100% 75.84 0.0
02 13:55 N 11 8.05 Light Rain CLR 13 13 100% 75.9 0.0
02 13:35 N 9 11.27 Rain SCT013 13 13 100% 75.9 0.0
02 13:15 N 7 16.09 Light Rain CLR 13 13 100% 75.87 0.0
02 12:55 N 9 16.09 Light Rain CLR 13 13 100% 75.87 0.0
02 12:35 N 13 11.27 Rain CLR 13 13 100% 75.84 0.0
02 12:15 N 13 16.09 Light Rain CLR 13 13 100% 75.95 0.0
02 11:55 N 13 11.27 Light Rain CLR 13 13 100% 75.95 0.0
02 11:35 N 13 11.27 Rain CLR 13 13 100% 75.95 0.0
02 11:15 N 15 11.27 Light Rain CLR 14 13 94% 75.92 0.0
02 10:55 N 11 11.27 Light Rain CLR 15 14 94% 75.92 0.0
02 10:35 NE 11 6.44 Rain CLR 15 15 100% 75.92 0.0
02 10:15 N 9 8.05 Rain CLR 15 15 100% 75.92 0.0
02 09:55 Calm 8.05 Rain CLR 15 15 100% 75.95 0.0
02 09:35 Calm 8.05 Light Rain CLR 15 15 100% 75.92 0.0
02 09:15 N 6 16.09 Light Rain CLR 15 15 100% 75.87 0.0
02 08:55 N 6 16.09 Fair CLR 15 15 100% 75.84 0.0
02 08:35 N 9 16.09 Fair CLR 15 15 100% 75.79 0.0
02 08:15 N 9 16.09 Light Drizzle CLR 14 14 100% 75.84 0.0
02 07:55 N 7 16.09 Fair CLR 14 14 100% 75.84 0.0
02 07:35 Calm 16.09 Light Drizzle CLR 14 14 100% 75.9 0.0
02 07:15 Calm 16.09 Light Rain CLR 14 14 100% 75.9 0.0
02 06:55 Calm 16.09 Light Rain CLR 14 14 100% 75.92 0.0
02 06:35 Calm 16.09 Light Rain CLR 14 14 100% 75.9 0.0
02 06:15 Calm 11.27 Light Rain CLR 14 14 100% 75.87 0.0
02 05:55 Calm 11.27 Light Rain CLR 13 13 100% 75.87 0.0
02 05:35 N 6 16.09 Light Rain CLR 13 13 100% 75.84 0.0
02 05:15 N 6 11.27 Light Rain CLR 13 13 100% 75.87 0.0
02 04:55 N 6 16.09 Light Rain CLR 14 13 94% 75.9 0.0
02 04:35 Calm 16.09 Light Rain CLR 14 13 94% 75.9 0.0
02 04:15 Calm 11.27 Light Rain CLR 15 13 88% 75.9 0.0
02 03:55 Calm 16.09 Light Rain CLR 15 13 88% 75.87 0.0
02 03:15 Calm 16.09 Fair CLR 15 13 88% 75.84 0.0
02 02:55 NE 6 16.09 Fair CLR 15 13 88% 75.84 0.0
02 02:35 Calm 16.09 Fair CLR 15 13 88% 75.87 0.0
02 02:15 Calm 16.09 Fair CLR 15 13 88% 75.87 0.0
02 01:55 Calm 16.09 Light Rain CLR 15 13 88% 75.92 0.0
02 01:35 Calm 16.09 Rain CLR 15 13 88% 75.92 0.0
02 01:15 NW 6 16.09 Fair CLR 15 13 88% 75.92 0.0
02 00:55 Calm 16.09 Fair CLR 15 14 94% 75.92 0.0
02 00:35 Calm 16.09 Fair CLR 15 14 94% 75.92 0.0
02 00:15 Calm 16.09 Light Rain CLR 15 14 94% 75.95 0.0
01 23:55 Calm 16.09 Fair CLR 15 13 88% 75.97 0.0
01 23:35 Calm 16.09 Fair CLR 15 13 88% 75.97 0.0
01 23:15 Calm 16.09 Light Rain CLR 16 12 77% 76 0.0
01 22:55 NE 6 16.09 Light Rain CLR 16 12 77% 75.97 0.0
01 22:35 NE 7 16.09 Fair CLR 16 12 77% 76 0.0
01 22:15 NE 9 16.09 Partly Cloudy SCT120 16 12 77% 75.97 0.0
01 21:55 NE 7 16.09 Fair CLR 16 12 77% 76 0.0
Date Time (edt) Wind (kph) Vis. (km) Weather Sky Cond. Air Dwpt Max. Min. Relative Humidity Wind Chill (°C) Heat Index (°C) altimeter (cm) sea level (mb) 1 hr 3 hr 6 hr
6 hour
Temperature (ºC) Pressure Precipitation (cm)